sensor_id;sensor_type;location;lat;lon;timestamp;P1;durP1;ratioP1;P2;durP2;ratioP2
77304;SDS011;66364;52.622;7.746;2023-03-23T00:01:05;15.70;;;13.90;;
77304;SDS011;66364;52.622;7.746;2023-03-23T00:03:07;16.05;;;14.35;;
77304;SDS011;66364;52.622;7.746;2023-03-23T00:05:08;15.93;;;13.23;;
77304;SDS011;66364;52.622;7.746;2023-03-23T00:07:10;14.30;;;13.00;;
77304;SDS011;66364;52.622;7.746;2023-03-23T00:09:11;13.27;;;11.60;;
77304;SDS011;66364;52.622;7.746;2023-03-23T00:11:15;12.37;;;11.18;;
77304;SDS011;66364;52.622;7.746;2023-03-23T00:13:18;12.80;;;11.60;;
77304;SDS011;66364;52.622;7.746;2023-03-23T00:15:20;11.68;;;10.50;;
77304;SDS011;66364;52.622;7.746;2023-03-23T00:17:21;10.65;;;9.58;;
77304;SDS011;66364;52.622;7.746;2023-03-23T00:19:22;10.57;;;9.53;;
77304;SDS011;66364;52.622;7.746;2023-03-23T00:21:24;11.60;;;10.20;;
77304;SDS011;66364;52.622;7.746;2023-03-23T00:23:26;11.70;;;10.70;;
77304;SDS011;66364;52.622;7.746;2023-03-23T00:25:27;10.50;;;9.60;;
77304;SDS011;66364;52.622;7.746;2023-03-23T00:27:28;10.67;;;9.70;;
77304;SDS011;66364;52.622;7.746;2023-03-23T00:29:31;12.37;;;11.08;;
77304;SDS011;66364;52.622;7.746;2023-03-23T00:31:31;11.00;;;9.85;;
77304;SDS011;66364;52.622;7.746;2023-03-23T00:33:33;11.93;;;10.73;;
77304;SDS011;66364;52.622;7.746;2023-03-23T00:35:36;14.20;;;10.60;;
77304;SDS011;66364;52.622;7.746;2023-03-23T00:37:37;9.23;;;8.28;;
77304;SDS011;66364;52.622;7.746;2023-03-23T00:39:38;12.50;;;9.30;;
77304;SDS011;66364;52.622;7.746;2023-03-23T00:41:40;13.18;;;8.78;;
77304;SDS011;66364;52.622;7.746;2023-03-23T00:43:41;10.28;;;9.23;;
77304;SDS011;66364;52.622;7.746;2023-03-23T00:45:42;8.87;;;7.97;;
77304;SDS011;66364;52.622;7.746;2023-03-23T00:47:44;9.35;;;7.92;;
77304;SDS011;66364;52.622;7.746;2023-03-23T00:49:45;10.03;;;9.13;;
77304;SDS011;66364;52.622;7.746;2023-03-23T00:51:46;9.97;;;8.97;;
77304;SDS011;66364;52.622;7.746;2023-03-23T00:53:46;9.43;;;8.53;;
77304;SDS011;66364;52.622;7.746;2023-03-23T00:55:50;13.00;;;8.43;;
77304;SDS011;66364;52.622;7.746;2023-03-23T00:58:13;10.23;;;8.75;;
77304;SDS011;66364;52.622;7.746;2023-03-23T01:00:15;10.60;;;8.15;;
77304;SDS011;66364;52.622;7.746;2023-03-23T01:02:16;8.25;;;7.45;;
77304;SDS011;66364;52.622;7.746;2023-03-23T01:04:17;9.83;;;8.43;;
77304;SDS011;66364;52.622;7.746;2023-03-23T01:06:18;9.50;;;7.85;;
77304;SDS011;66364;52.622;7.746;2023-03-23T01:08:20;8.33;;;7.53;;
77304;SDS011;66364;52.622;7.746;2023-03-23T01:10:29;11.33;;;9.15;;
77304;SDS011;66364;52.622;7.746;2023-03-23T01:12:30;8.30;;;7.60;;
77304;SDS011;66364;52.622;7.746;2023-03-23T01:14:31;11.43;;;8.70;;
77304;SDS011;66364;52.622;7.746;2023-03-23T01:16:31;7.70;;;7.00;;
77304;SDS011;66364;52.622;7.746;2023-03-23T01:18:32;8.33;;;7.62;;
77304;SDS011;66364;52.622;7.746;2023-03-23T01:20:34;9.33;;;6.40;;
77304;SDS011;66364;52.622;7.746;2023-03-23T01:22:37;10.25;;;7.60;;
77304;SDS011;66364;52.622;7.746;2023-03-23T01:24:40;10.03;;;7.78;;
77304;SDS011;66364;52.622;7.746;2023-03-23T01:26:42;9.73;;;6.97;;
77304;SDS011;66364;52.622;7.746;2023-03-23T01:28:43;9.43;;;7.90;;
77304;SDS011;66364;52.622;7.746;2023-03-23T01:30:48;9.05;;;7.28;;
77304;SDS011;66364;52.622;7.746;2023-03-23T01:32:55;8.10;;;7.12;;
77304;SDS011;66364;52.622;7.746;2023-03-23T01:34:56;6.87;;;6.15;;
77304;SDS011;66364;52.622;7.746;2023-03-23T01:36:57;10.82;;;6.90;;
77304;SDS011;66364;52.622;7.746;2023-03-23T01:38:59;7.73;;;7.03;;
77304;SDS011;66364;52.622;7.746;2023-03-23T01:41:21;7.92;;;6.83;;
77304;SDS011;66364;52.622;7.746;2023-03-23T01:43:22;7.62;;;6.83;;
77304;SDS011;66364;52.622;7.746;2023-03-23T01:45:27;7.00;;;6.30;;
77304;SDS011;66364;52.622;7.746;2023-03-23T01:47:30;6.05;;;5.40;;
77304;SDS011;66364;52.622;7.746;2023-03-23T01:49:36;8.98;;;6.25;;
77304;SDS011;66364;52.622;7.746;2023-03-23T01:51:38;7.17;;;6.45;;
77304;SDS011;66364;52.622;7.746;2023-03-23T01:53:52;7.97;;;6.62;;
77304;SDS011;66364;52.622;7.746;2023-03-23T01:55:58;9.95;;;6.08;;
77304;SDS011;66364;52.622;7.746;2023-03-23T01:58:00;6.83;;;6.08;;
77304;SDS011;66364;52.622;7.746;2023-03-23T02:00:03;12.07;;;6.90;;
77304;SDS011;66364;52.622;7.746;2023-03-23T02:02:11;7.65;;;5.50;;
77304;SDS011;66364;52.622;7.746;2023-03-23T02:04:13;9.33;;;6.35;;
77304;SDS011;66364;52.622;7.746;2023-03-23T02:06:16;8.08;;;6.40;;
77304;SDS011;66364;52.622;7.746;2023-03-23T02:08:17;8.77;;;6.00;;
77304;SDS011;66364;52.622;7.746;2023-03-23T02:10:19;8.95;;;6.22;;
77304;SDS011;66364;52.622;7.746;2023-03-23T02:12:20;7.80;;;6.03;;
77304;SDS011;66364;52.622;7.746;2023-03-23T02:14:22;7.03;;;6.40;;
77304;SDS011;66364;52.622;7.746;2023-03-23T02:16:28;6.28;;;5.30;;
77304;SDS011;66364;52.622;7.746;2023-03-23T02:19:48;7.08;;;5.62;;
77304;SDS011;66364;52.622;7.746;2023-03-23T02:28:31;7.92;;;6.42;;
77304;SDS011;66364;52.622;7.746;2023-03-23T02:30:49;8.30;;;6.80;;
77304;SDS011;66364;52.622;7.746;2023-03-23T02:35:34;10.00;;;9.00;;
77304;SDS011;66364;52.622;7.746;2023-03-23T02:37:39;11.57;;;7.85;;
77304;SDS011;66364;52.622;7.746;2023-03-23T02:39:47;11.18;;;10.08;;
77304;SDS011;66364;52.622;7.746;2023-03-23T02:41:51;13.48;;;9.45;;
77304;SDS011;66364;52.622;7.746;2023-03-23T02:43:55;9.13;;;8.33;;
77304;SDS011;66364;52.622;7.746;2023-03-23T02:46:17;11.55;;;10.05;;
77304;SDS011;66364;52.622;7.746;2023-03-23T02:50:43;10.75;;;9.63;;
77304;SDS011;66364;52.622;7.746;2023-03-23T02:52:47;10.00;;;9.08;;
77304;SDS011;66364;52.622;7.746;2023-03-23T02:54:50;11.65;;;9.50;;
77304;SDS011;66364;52.622;7.746;2023-03-23T02:56:53;10.65;;;9.55;;
77304;SDS011;66364;52.622;7.746;2023-03-23T02:58:55;10.98;;;9.98;;
77304;SDS011;66364;52.622;7.746;2023-03-23T03:00:56;8.98;;;8.15;;
77304;SDS011;66364;52.622;7.746;2023-03-23T03:02:57;12.00;;;9.73;;
77304;SDS011;66364;52.622;7.746;2023-03-23T03:11:55;15.95;;;9.50;;
77304;SDS011;66364;52.622;7.746;2023-03-23T03:14:05;9.88;;;8.98;;
77304;SDS011;66364;52.622;7.746;2023-03-23T03:18:32;10.60;;;8.95;;
77304;SDS011;66364;52.622;7.746;2023-03-23T03:20:37;10.68;;;8.88;;
77304;SDS011;66364;52.622;7.746;2023-03-23T03:22:40;9.70;;;8.70;;
77304;SDS011;66364;52.622;7.746;2023-03-23T03:24:44;9.70;;;8.78;;
77304;SDS011;66364;52.622;7.746;2023-03-23T03:26:46;11.43;;;9.10;;
77304;SDS011;66364;52.622;7.746;2023-03-23T03:28:49;12.03;;;8.85;;
77304;SDS011;66364;52.622;7.746;2023-03-23T03:30:54;9.40;;;8.60;;
77304;SDS011;66364;52.622;7.746;2023-03-23T03:32:57;12.47;;;9.85;;
77304;SDS011;66364;52.622;7.746;2023-03-23T03:35:04;10.28;;;9.25;;
77304;SDS011;66364;52.622;7.746;2023-03-23T03:37:03;10.23;;;9.33;;
77304;SDS011;66364;52.622;7.746;2023-03-23T03:39:05;9.33;;;8.35;;
77304;SDS011;66364;52.622;7.746;2023-03-23T03:41:08;9.45;;;7.65;;
77304;SDS011;66364;52.622;7.746;2023-03-23T03:43:08;8.60;;;7.80;;
77304;SDS011;66364;52.622;7.746;2023-03-23T03:45:11;9.83;;;8.90;;
77304;SDS011;66364;52.622;7.746;2023-03-23T03:49:35;9.58;;;8.13;;
77304;SDS011;66364;52.622;7.746;2023-03-23T03:51:36;10.63;;;8.00;;
77304;SDS011;66364;52.622;7.746;2023-03-23T03:53:37;9.90;;;8.93;;
77304;SDS011;66364;52.622;7.746;2023-03-23T03:55:38;9.90;;;8.90;;
77304;SDS011;66364;52.622;7.746;2023-03-23T03:57:40;10.13;;;9.03;;
77304;SDS011;66364;52.622;7.746;2023-03-23T03:59:40;9.67;;;8.77;;
77304;SDS011;66364;52.622;7.746;2023-03-23T04:01:41;9.53;;;8.53;;
77304;SDS011;66364;52.622;7.746;2023-03-23T04:03:42;10.18;;;9.18;;
77304;SDS011;66364;52.622;7.746;2023-03-23T04:05:44;13.62;;;10.60;;
77304;SDS011;66364;52.622;7.746;2023-03-23T04:07:45;9.35;;;8.30;;
77304;SDS011;66364;52.622;7.746;2023-03-23T04:09:46;10.30;;;9.03;;
77304;SDS011;66364;52.622;7.746;2023-03-23T04:11:47;12.70;;;11.38;;
77304;SDS011;66364;52.622;7.746;2023-03-23T04:13:48;9.50;;;8.60;;
77304;SDS011;66364;52.622;7.746;2023-03-23T04:15:49;9.50;;;8.60;;
77304;SDS011;66364;52.622;7.746;2023-03-23T04:17:50;11.50;;;9.33;;
77304;SDS011;66364;52.622;7.746;2023-03-23T04:19:51;10.32;;;9.23;;
77304;SDS011;66364;52.622;7.746;2023-03-23T04:24:17;11.20;;;10.10;;
77304;SDS011;66364;52.622;7.746;2023-03-23T04:26:18;8.98;;;8.18;;
77304;SDS011;66364;52.622;7.746;2023-03-23T04:28:19;9.90;;;9.05;;
77304;SDS011;66364;52.622;7.746;2023-03-23T04:30:22;11.43;;;9.00;;
77304;SDS011;66364;52.622;7.746;2023-03-23T04:32:25;9.95;;;9.05;;
77304;SDS011;66364;52.622;7.746;2023-03-23T04:34:26;8.90;;;8.00;;
77304;SDS011;66364;52.622;7.746;2023-03-23T04:36:27;9.80;;;8.33;;
77304;SDS011;66364;52.622;7.746;2023-03-23T04:38:28;9.40;;;8.40;;
77304;SDS011;66364;52.622;7.746;2023-03-23T04:40:31;12.03;;;7.85;;
77304;SDS011;66364;52.622;7.746;2023-03-23T04:42:32;8.63;;;7.87;;
77304;SDS011;66364;52.622;7.746;2023-03-23T04:46:54;8.68;;;7.30;;
77304;SDS011;66364;52.622;7.746;2023-03-23T04:48:54;7.33;;;6.70;;
77304;SDS011;66364;52.622;7.746;2023-03-23T04:50:55;7.67;;;7.07;;
77304;SDS011;66364;52.622;7.746;2023-03-23T04:52:57;8.73;;;7.80;;
77304;SDS011;66364;52.622;7.746;2023-03-23T04:55:00;8.85;;;7.12;;
77304;SDS011;66364;52.622;7.746;2023-03-23T04:57:00;8.07;;;7.30;;
77304;SDS011;66364;52.622;7.746;2023-03-23T04:59:03;8.23;;;6.30;;
77304;SDS011;66364;52.622;7.746;2023-03-23T05:01:04;8.73;;;5.30;;
77304;SDS011;66364;52.622;7.746;2023-03-23T05:03:05;6.05;;;5.45;;
77304;SDS011;66364;52.622;7.746;2023-03-23T05:05:07;6.92;;;4.87;;
77304;SDS011;66364;52.622;7.746;2023-03-23T05:07:10;5.25;;;4.72;;
77304;SDS011;66364;52.622;7.746;2023-03-23T05:09:11;7.45;;;5.40;;
77304;SDS011;66364;52.622;7.746;2023-03-23T05:11:16;6.62;;;5.17;;
77304;SDS011;66364;52.622;7.746;2023-03-23T05:13:19;5.87;;;4.67;;
77304;SDS011;66364;52.622;7.746;2023-03-23T05:15:22;5.72;;;5.10;;
77304;SDS011;66364;52.622;7.746;2023-03-23T05:17:25;6.45;;;4.90;;
77304;SDS011;66364;52.622;7.746;2023-03-23T05:19:28;7.83;;;5.37;;
77304;SDS011;66364;52.622;7.746;2023-03-23T05:21:31;7.67;;;5.03;;
77304;SDS011;66364;52.622;7.746;2023-03-23T05:23:33;8.93;;;5.95;;
77304;SDS011;66364;52.622;7.746;2023-03-23T05:25:36;5.55;;;5.05;;
77304;SDS011;66364;52.622;7.746;2023-03-23T05:27:38;6.62;;;5.00;;
77304;SDS011;66364;52.622;7.746;2023-03-23T05:29:39;5.90;;;5.28;;
77304;SDS011;66364;52.622;7.746;2023-03-23T05:31:42;6.80;;;5.62;;
77304;SDS011;66364;52.622;7.746;2023-03-23T05:33:43;6.90;;;5.53;;
77304;SDS011;66364;52.622;7.746;2023-03-23T05:35:45;6.80;;;5.90;;
77304;SDS011;66364;52.622;7.746;2023-03-23T05:37:49;8.03;;;7.20;;
77304;SDS011;66364;52.622;7.746;2023-03-23T05:39:50;6.87;;;5.75;;
77304;SDS011;66364;52.622;7.746;2023-03-23T05:41:52;7.45;;;6.17;;
77304;SDS011;66364;52.622;7.746;2023-03-23T05:43:53;6.50;;;6.00;;
77304;SDS011;66364;52.622;7.746;2023-03-23T05:45:54;8.03;;;6.67;;
77304;SDS011;66364;52.622;7.746;2023-03-23T05:47:55;7.60;;;6.67;;
77304;SDS011;66364;52.622;7.746;2023-03-23T05:49:56;7.23;;;6.43;;
77304;SDS011;66364;52.622;7.746;2023-03-23T05:51:57;7.75;;;7.15;;
77304;SDS011;66364;52.622;7.746;2023-03-23T05:53:58;8.27;;;6.90;;
77304;SDS011;66364;52.622;7.746;2023-03-23T05:56:02;7.70;;;7.10;;
77304;SDS011;66364;52.622;7.746;2023-03-23T05:58:03;7.53;;;6.80;;
77304;SDS011;66364;52.622;7.746;2023-03-23T06:00:04;9.00;;;8.20;;
77304;SDS011;66364;52.622;7.746;2023-03-23T06:02:27;7.12;;;6.62;;
77304;SDS011;66364;52.622;7.746;2023-03-23T06:04:28;8.07;;;7.30;;
77304;SDS011;66364;52.622;7.746;2023-03-23T06:06:29;7.03;;;6.43;;
77304;SDS011;66364;52.622;7.746;2023-03-23T06:08:32;7.50;;;6.90;;
77304;SDS011;66364;52.622;7.746;2023-03-23T06:10:33;7.20;;;6.57;;
77304;SDS011;66364;52.622;7.746;2023-03-23T06:12:34;8.40;;;7.70;;
77304;SDS011;66364;52.622;7.746;2023-03-23T06:14:36;8.48;;;7.40;;
77304;SDS011;66364;52.622;7.746;2023-03-23T06:16:38;6.83;;;6.22;;
77304;SDS011;66364;52.622;7.746;2023-03-23T06:18:38;8.17;;;6.50;;
77304;SDS011;66364;52.622;7.746;2023-03-23T06:20:39;6.10;;;5.30;;
77304;SDS011;66364;52.622;7.746;2023-03-23T06:22:41;5.87;;;5.25;;
77304;SDS011;66364;52.622;7.746;2023-03-23T06:24:42;10.67;;;6.50;;
77304;SDS011;66364;52.622;7.746;2023-03-23T06:26:43;7.37;;;5.42;;
77304;SDS011;66364;52.622;7.746;2023-03-23T06:28:44;7.17;;;5.37;;
77304;SDS011;66364;52.622;7.746;2023-03-23T06:30:47;5.50;;;5.00;;
77304;SDS011;66364;52.622;7.746;2023-03-23T06:32:49;5.47;;;4.85;;
77304;SDS011;66364;52.622;7.746;2023-03-23T06:34:51;7.17;;;4.75;;
77304;SDS011;66364;52.622;7.746;2023-03-23T06:36:53;5.47;;;4.78;;
77304;SDS011;66364;52.622;7.746;2023-03-23T06:38:57;5.97;;;4.50;;
77304;SDS011;66364;52.622;7.746;2023-03-23T06:40:59;15.80;;;5.17;;
77304;SDS011;66364;52.622;7.746;2023-03-23T06:43:03;5.50;;;5.00;;
77304;SDS011;66364;52.622;7.746;2023-03-23T06:45:05;9.60;;;4.78;;
77304;SDS011;66364;52.622;7.746;2023-03-23T06:47:08;5.03;;;4.53;;
77304;SDS011;66364;52.622;7.746;2023-03-23T06:49:11;7.53;;;4.72;;
77304;SDS011;66364;52.622;7.746;2023-03-23T06:51:14;6.00;;;4.78;;
77304;SDS011;66364;52.622;7.746;2023-03-23T06:53:15;5.90;;;4.78;;
77304;SDS011;66364;52.622;7.746;2023-03-23T06:55:18;9.78;;;4.62;;
77304;SDS011;66364;52.622;7.746;2023-03-23T06:57:20;4.47;;;4.00;;
77304;SDS011;66364;52.622;7.746;2023-03-23T06:59:23;5.40;;;4.50;;
77304;SDS011;66364;52.622;7.746;2023-03-23T07:01:25;5.33;;;4.75;;
77304;SDS011;66364;52.622;7.746;2023-03-23T07:03:28;6.00;;;3.98;;
77304;SDS011;66364;52.622;7.746;2023-03-23T07:05:31;6.33;;;4.47;;
77304;SDS011;66364;52.622;7.746;2023-03-23T07:07:33;7.45;;;4.20;;
77304;SDS011;66364;52.622;7.746;2023-03-23T07:09:36;7.22;;;4.12;;
77304;SDS011;66364;52.622;7.746;2023-03-23T07:11:37;5.62;;;4.03;;
77304;SDS011;66364;52.622;7.746;2023-03-23T07:13:39;3.77;;;3.45;;
77304;SDS011;66364;52.622;7.746;2023-03-23T07:15:40;4.90;;;4.30;;
77304;SDS011;66364;52.622;7.746;2023-03-23T07:17:42;6.20;;;4.10;;
77304;SDS011;66364;52.622;7.746;2023-03-23T07:19:44;3.90;;;3.50;;
77304;SDS011;66364;52.622;7.746;2023-03-23T07:21:45;3.15;;;2.65;;
77304;SDS011;66364;52.622;7.746;2023-03-23T07:23:47;4.55;;;2.85;;
77304;SDS011;66364;52.622;7.746;2023-03-23T07:25:48;5.80;;;3.80;;
77304;SDS011;66364;52.622;7.746;2023-03-23T07:27:48;9.27;;;4.73;;
77304;SDS011;66364;52.622;7.746;2023-03-23T07:29:50;4.97;;;3.25;;
77304;SDS011;66364;52.622;7.746;2023-03-23T07:31:52;4.97;;;3.17;;
77304;SDS011;66364;52.622;7.746;2023-03-23T07:33:53;5.78;;;3.80;;
77304;SDS011;66364;52.622;7.746;2023-03-23T07:35:57;6.75;;;3.30;;
77304;SDS011;66364;52.622;7.746;2023-03-23T07:38:02;6.83;;;4.05;;
77304;SDS011;66364;52.622;7.746;2023-03-23T07:40:05;6.65;;;3.62;;
77304;SDS011;66364;52.622;7.746;2023-03-23T07:42:11;6.00;;;3.35;;
77304;SDS011;66364;52.622;7.746;2023-03-23T07:44:11;7.17;;;4.60;;
77304;SDS011;66364;52.622;7.746;2023-03-23T07:46:12;5.97;;;2.97;;
77304;SDS011;66364;52.622;7.746;2023-03-23T07:48:13;3.10;;;1.75;;
77304;SDS011;66364;52.622;7.746;2023-03-23T07:50:14;2.23;;;1.23;;
77304;SDS011;66364;52.622;7.746;2023-03-23T07:52:16;3.08;;;1.60;;
77304;SDS011;66364;52.622;7.746;2023-03-23T07:54:17;4.05;;;2.02;;
77304;SDS011;66364;52.622;7.746;2023-03-23T07:56:18;3.10;;;1.60;;
77304;SDS011;66364;52.622;7.746;2023-03-23T07:58:19;3.90;;;1.52;;
77304;SDS011;66364;52.622;7.746;2023-03-23T08:00:20;4.42;;;1.67;;
77304;SDS011;66364;52.622;7.746;2023-03-23T08:02:23;2.40;;;1.20;;
77304;SDS011;66364;52.622;7.746;2023-03-23T08:04:24;5.65;;;1.30;;
77304;SDS011;66364;52.622;7.746;2023-03-23T08:06:25;3.83;;;1.87;;
77304;SDS011;66364;52.622;7.746;2023-03-23T08:08:27;4.60;;;1.50;;
77304;SDS011;66364;52.622;7.746;2023-03-23T08:10:28;3.07;;;2.13;;
77304;SDS011;66364;52.622;7.746;2023-03-23T08:12:29;3.17;;;2.03;;
77304;SDS011;66364;52.622;7.746;2023-03-23T08:14:29;6.53;;;2.30;;
77304;SDS011;66364;52.622;7.746;2023-03-23T08:16:31;5.70;;;1.73;;
77304;SDS011;66364;52.622;7.746;2023-03-23T08:18:32;2.85;;;1.50;;
77304;SDS011;66364;52.622;7.746;2023-03-23T08:20:33;4.67;;;2.07;;
77304;SDS011;66364;52.622;7.746;2023-03-23T08:22:36;4.70;;;2.42;;
77304;SDS011;66364;52.622;7.746;2023-03-23T08:24:37;4.78;;;2.47;;
77304;SDS011;66364;52.622;7.746;2023-03-23T08:26:38;15.80;;;3.93;;
77304;SDS011;66364;52.622;7.746;2023-03-23T08:28:39;4.08;;;2.10;;
77304;SDS011;66364;52.622;7.746;2023-03-23T08:30:41;4.53;;;2.17;;
77304;SDS011;66364;52.622;7.746;2023-03-23T08:32:42;6.42;;;3.08;;
77304;SDS011;66364;52.622;7.746;2023-03-23T08:34:44;3.90;;;1.80;;
77304;SDS011;66364;52.622;7.746;2023-03-23T08:36:46;5.40;;;3.08;;
77304;SDS011;66364;52.622;7.746;2023-03-23T08:38:48;7.80;;;2.00;;
77304;SDS011;66364;52.622;7.746;2023-03-23T08:40:50;8.80;;;2.42;;
77304;SDS011;66364;52.622;7.746;2023-03-23T08:42:52;4.15;;;2.22;;
77304;SDS011;66364;52.622;7.746;2023-03-23T08:44:53;8.35;;;1.85;;
77304;SDS011;66364;52.622;7.746;2023-03-23T08:46:54;3.50;;;1.77;;
77304;SDS011;66364;52.622;7.746;2023-03-23T08:48:56;4.60;;;2.40;;
77304;SDS011;66364;52.622;7.746;2023-03-23T08:50:57;5.17;;;2.05;;
77304;SDS011;66364;52.622;7.746;2023-03-23T08:52:58;3.50;;;2.07;;
77304;SDS011;66364;52.622;7.746;2023-03-23T08:54:59;3.30;;;2.47;;
77304;SDS011;66364;52.622;7.746;2023-03-23T08:57:00;3.87;;;2.07;;
77304;SDS011;66364;52.622;7.746;2023-03-23T08:59:03;5.08;;;2.60;;
77304;SDS011;66364;52.622;7.746;2023-03-23T09:01:04;6.40;;;2.50;;
77304;SDS011;66364;52.622;7.746;2023-03-23T09:03:07;6.25;;;2.70;;
77304;SDS011;66364;52.622;7.746;2023-03-23T09:05:08;8.37;;;2.30;;
77304;SDS011;66364;52.622;7.746;2023-03-23T09:07:11;8.38;;;3.00;;
77304;SDS011;66364;52.622;7.746;2023-03-23T09:09:13;4.87;;;2.72;;
77304;SDS011;66364;52.622;7.746;2023-03-23T09:11:14;7.37;;;2.92;;
77304;SDS011;66364;52.622;7.746;2023-03-23T09:13:16;9.13;;;2.75;;
77304;SDS011;66364;52.622;7.746;2023-03-23T09:15:17;6.12;;;2.58;;
77304;SDS011;66364;52.622;7.746;2023-03-23T09:17:20;9.85;;;4.50;;
77304;SDS011;66364;52.622;7.746;2023-03-23T09:19:21;6.80;;;2.63;;
77304;SDS011;66364;52.622;7.746;2023-03-23T09:21:22;6.23;;;2.57;;
77304;SDS011;66364;52.622;7.746;2023-03-23T09:23:24;4.92;;;3.10;;
77304;SDS011;66364;52.622;7.746;2023-03-23T09:25:25;8.03;;;3.27;;
77304;SDS011;66364;52.622;7.746;2023-03-23T09:27:27;7.53;;;3.58;;
77304;SDS011;66364;52.622;7.746;2023-03-23T09:29:28;3.00;;;2.50;;
77304;SDS011;66364;52.622;7.746;2023-03-23T09:31:29;7.40;;;2.97;;
77304;SDS011;66364;52.622;7.746;2023-03-23T09:33:30;6.78;;;4.12;;
77304;SDS011;66364;52.622;7.746;2023-03-23T09:35:32;8.07;;;2.53;;
77304;SDS011;66364;52.622;7.746;2023-03-23T09:37:34;4.95;;;2.70;;
77304;SDS011;66364;52.622;7.746;2023-03-23T09:39:35;4.78;;;3.08;;
77304;SDS011;66364;52.622;7.746;2023-03-23T09:44:15;5.37;;;3.37;;
77304;SDS011;66364;52.622;7.746;2023-03-23T09:48:51;6.08;;;3.42;;
77304;SDS011;66364;52.622;7.746;2023-03-23T09:50:57;8.95;;;3.40;;
77304;SDS011;66364;52.622;7.746;2023-03-23T09:53:16;9.70;;;3.65;;
77304;SDS011;66364;52.622;7.746;2023-03-23T09:55:23;7.28;;;3.70;;
77304;SDS011;66364;52.622;7.746;2023-03-23T09:57:29;5.85;;;3.85;;
77304;SDS011;66364;52.622;7.746;2023-03-23T09:59:38;4.60;;;3.55;;
77304;SDS011;66364;52.622;7.746;2023-03-23T10:01:49;6.25;;;3.92;;
77304;SDS011;66364;52.622;7.746;2023-03-23T10:03:55;10.15;;;3.87;;
77304;SDS011;66364;52.622;7.746;2023-03-23T10:05:57;7.55;;;5.35;;
77304;SDS011;66364;52.622;7.746;2023-03-23T10:07:58;6.40;;;4.97;;
77304;SDS011;66364;52.622;7.746;2023-03-23T10:10:01;7.10;;;4.75;;
77304;SDS011;66364;52.622;7.746;2023-03-23T10:12:10;6.55;;;3.65;;
77304;SDS011;66364;52.622;7.746;2023-03-23T10:14:15;7.60;;;4.28;;
77304;SDS011;66364;52.622;7.746;2023-03-23T10:16:32;5.60;;;4.47;;
77304;SDS011;66364;52.622;7.746;2023-03-23T10:20:43;5.90;;;4.40;;
77304;SDS011;66364;52.622;7.746;2023-03-23T10:23:02;6.62;;;4.20;;
77304;SDS011;66364;52.622;7.746;2023-03-23T10:29:20;4.65;;;4.25;;
77304;SDS011;66364;52.622;7.746;2023-03-23T10:31:24;7.33;;;3.62;;
77304;SDS011;66364;52.622;7.746;2023-03-23T10:33:33;8.15;;;3.50;;
77304;SDS011;66364;52.622;7.746;2023-03-23T10:35:37;6.30;;;4.05;;
77304;SDS011;66364;52.622;7.746;2023-03-23T10:37:46;7.45;;;3.10;;
77304;SDS011;66364;52.622;7.746;2023-03-23T10:39:53;6.40;;;3.77;;
77304;SDS011;66364;52.622;7.746;2023-03-23T10:41:55;5.22;;;3.42;;
77304;SDS011;66364;52.622;7.746;2023-03-23T10:43:56;5.10;;;4.00;;
77304;SDS011;66364;52.622;7.746;2023-03-23T10:46:02;4.72;;;3.30;;
77304;SDS011;66364;52.622;7.746;2023-03-23T10:48:30;7.20;;;4.97;;
77304;SDS011;66364;52.622;7.746;2023-03-23T10:50:35;6.55;;;2.87;;
77304;SDS011;66364;52.622;7.746;2023-03-23T10:52:41;4.60;;;3.65;;
77304;SDS011;66364;52.622;7.746;2023-03-23T10:54:48;7.67;;;3.95;;
77304;SDS011;66364;52.622;7.746;2023-03-23T10:56:54;4.67;;;3.27;;
77304;SDS011;66364;52.622;7.746;2023-03-23T10:58:55;5.97;;;2.50;;
77304;SDS011;66364;52.622;7.746;2023-03-23T11:00:56;2.75;;;2.52;;
77304;SDS011;66364;52.622;7.746;2023-03-23T11:05:06;7.00;;;2.45;;
77304;SDS011;66364;52.622;7.746;2023-03-23T11:07:21;6.15;;;4.15;;
77304;SDS011;66364;52.622;7.746;2023-03-23T11:09:35;3.80;;;2.85;;
77304;SDS011;66364;52.622;7.746;2023-03-23T11:11:40;5.70;;;2.72;;
77304;SDS011;66364;52.622;7.746;2023-03-23T11:13:47;1.70;;;1.60;;
77304;SDS011;66364;52.622;7.746;2023-03-23T11:16:10;3.70;;;2.42;;
77304;SDS011;66364;52.622;7.746;2023-03-23T11:18:25;2.00;;;1.62;;
77304;SDS011;66364;52.622;7.746;2023-03-23T11:20:24;4.65;;;2.10;;
77304;SDS011;66364;52.622;7.746;2023-03-23T11:22:27;2.52;;;2.10;;
77304;SDS011;66364;52.622;7.746;2023-03-23T11:24:31;6.83;;;2.80;;
77304;SDS011;66364;52.622;7.746;2023-03-23T11:26:35;6.53;;;2.60;;
77304;SDS011;66364;52.622;7.746;2023-03-23T11:28:38;5.78;;;2.37;;
77304;SDS011;66364;52.622;7.746;2023-03-23T11:30:52;1.98;;;1.75;;
77304;SDS011;66364;52.622;7.746;2023-03-23T11:32:58;3.40;;;1.92;;
77304;SDS011;66364;52.622;7.746;2023-03-23T11:35:02;4.50;;;2.40;;
77304;SDS011;66364;52.622;7.746;2023-03-23T11:37:08;4.78;;;2.17;;
77304;SDS011;66364;52.622;7.746;2023-03-23T11:39:29;2.25;;;2.00;;
77304;SDS011;66364;52.622;7.746;2023-03-23T11:41:37;3.67;;;2.20;;
77304;SDS011;66364;52.622;7.746;2023-03-23T11:43:44;5.28;;;2.50;;
77304;SDS011;66364;52.622;7.746;2023-03-23T11:45:47;4.90;;;2.42;;
77304;SDS011;66364;52.622;7.746;2023-03-23T11:50:17;2.47;;;2.27;;
77304;SDS011;66364;52.622;7.746;2023-03-23T11:52:38;2.83;;;2.52;;
77304;SDS011;66364;52.622;7.746;2023-03-23T11:54:48;3.70;;;2.60;;
77304;SDS011;66364;52.622;7.746;2023-03-23T11:56:48;2.60;;;2.40;;
77304;SDS011;66364;52.622;7.746;2023-03-23T11:58:51;5.30;;;2.50;;
77304;SDS011;66364;52.622;7.746;2023-03-23T12:00:58;4.95;;;3.35;;
77304;SDS011;66364;52.622;7.746;2023-03-23T12:03:04;3.35;;;3.05;;
77304;SDS011;66364;52.622;7.746;2023-03-23T12:10:15;3.58;;;2.30;;
77304;SDS011;66364;52.622;7.746;2023-03-23T12:12:42;3.58;;;2.22;;
77304;SDS011;66364;52.622;7.746;2023-03-23T12:14:56;2.92;;;1.90;;
77304;SDS011;66364;52.622;7.746;2023-03-23T12:21:41;6.47;;;2.17;;
77304;SDS011;66364;52.622;7.746;2023-03-23T12:24:01;5.05;;;2.33;;
77304;SDS011;66364;52.622;7.746;2023-03-23T12:26:16;3.87;;;2.33;;
77304;SDS011;66364;52.622;7.746;2023-03-23T12:30:42;4.85;;;2.25;;
77304;SDS011;66364;52.622;7.746;2023-03-23T12:32:58;4.03;;;2.50;;
77304;SDS011;66364;52.622;7.746;2023-03-23T12:35:20;2.77;;;1.77;;
77304;SDS011;66364;52.622;7.746;2023-03-23T12:45:03;4.25;;;1.82;;
77304;SDS011;66364;52.622;7.746;2023-03-23T12:51:57;5.00;;;2.10;;
77304;SDS011;66364;52.622;7.746;2023-03-23T12:54:29;5.97;;;2.12;;
77304;SDS011;66364;52.622;7.746;2023-03-23T12:58:55;4.92;;;2.20;;
77304;SDS011;66364;52.622;7.746;2023-03-23T13:01:03;4.70;;;2.70;;
77304;SDS011;66364;52.622;7.746;2023-03-23T13:03:09;6.45;;;2.35;;
77304;SDS011;66364;52.622;7.746;2023-03-23T13:07:46;6.22;;;2.67;;
77304;SDS011;66364;52.622;7.746;2023-03-23T13:10:03;4.53;;;2.05;;
77304;SDS011;66364;52.622;7.746;2023-03-23T13:12:10;6.00;;;2.50;;
77304;SDS011;66364;52.622;7.746;2023-03-23T13:19:14;8.40;;;2.30;;
77304;SDS011;66364;52.622;7.746;2023-03-23T13:24:23;5.25;;;1.87;;
77304;SDS011;66364;52.622;7.746;2023-03-23T13:25:46;9.35;;;2.35;;
77304;SDS011;66364;52.622;7.746;2023-03-23T13:30:02;5.72;;;2.20;;
77304;SDS011;66364;52.622;7.746;2023-03-23T13:32:10;6.65;;;2.85;;
77304;SDS011;66364;52.622;7.746;2023-03-23T13:34:16;7.40;;;2.40;;
77304;SDS011;66364;52.622;7.746;2023-03-23T13:36:29;6.00;;;2.05;;
77304;SDS011;66364;52.622;7.746;2023-03-23T13:38:36;4.35;;;2.10;;
77304;SDS011;66364;52.622;7.746;2023-03-23T13:40:40;6.83;;;2.62;;
77304;SDS011;66364;52.622;7.746;2023-03-23T13:42:51;4.62;;;2.50;;
77304;SDS011;66364;52.622;7.746;2023-03-23T13:44:55;4.15;;;2.10;;
77304;SDS011;66364;52.622;7.746;2023-03-23T13:47:14;3.10;;;2.40;;
77304;SDS011;66364;52.622;7.746;2023-03-23T13:49:19;4.60;;;2.80;;